Time;durP1;ratioP1;P1;durP2;ratioP2;P2;SDS_P1;SDS_P2;PMS_P1;PMS_P2;Temp;Humidity;BMP_temperature;BMP_pressure;BME280_temperature;BME280_humidity;BME280_pressure;Samples;Min_cycle;Max_cycle;Signal;HPM_P1;HPM_P2
2022/08/09 00:01:13;;;;;;;186.00;42.35;;;;;;;;;;4210988;28;20111;-61
2022/08/09 00:03:14;;;;;;;166.32;40.92;;;;;;;;;;4216490;28;20032;-60
2022/08/09 00:05:16;;;;;;;202.48;42.28;;;;;;;;;;4216440;28;20383;-61
2022/08/09 00:07:17;;;;;;;174.27;42.78;;;;;;;;;;4216343;28;20057;-61
2022/08/09 00:09:18;;;;;;;177.70;41.45;;;;;;;;;;4216317;28;20036;-61
2022/08/09 00:11:20;;;;;;;170.23;40.67;;;;;;;;;;4215420;28;20028;-60
2022/08/09 00:13:21;;;;;;;160.85;39.70;;;;;;;;;;4216003;28;20044;-61
2022/08/09 00:15:21;;;;;;;169.65;40.08;;;;;;;;;;4200026;28;20468;-60
2022/08/09 00:17:23;;;;;;;170.18;39.17;;;;;;;;;;4199160;28;20044;-61
2022/08/09 00:19:24;;;;;;;165.38;40.08;;;;;;;;;;4198475;28;20086;-61
2022/08/09 00:21:25;;;;;;;174.60;40.30;;;;;;;;;;4198725;28;20036;-61
2022/08/09 00:23:29;;;;;;;193.73;41.42;;;;;;;;;;4198921;28;20115;-61
2022/08/09 00:25:30;;;;;;;195.25;40.97;;;;;;;;;;4198930;28;20032;-61
2022/08/09 00:27:33;;;;;;;177.75;37.75;;;;;;;;;;4198860;28;20472;-61
2022/08/09 00:29:34;;;;;;;195.70;41.90;;;;;;;;;;4198441;28;20479;-62
2022/08/09 00:31:37;;;;;;;185.88;39.17;;;;;;;;;;4199006;28;20132;-62
2022/08/09 00:33:42;;;;;;;196.43;40.78;;;;;;;;;;4203903;28;20459;-61
2022/08/09 00:35:43;;;;;;;174.95;39.30;;;;;;;;;;4215884;28;20062;-62
2022/08/09 00:37:46;;;;;;;224.27;41.05;;;;;;;;;;4215503;28;20036;-61
2022/08/09 00:39:47;;;;;;;216.05;43.35;;;;;;;;;;4215249;28;20074;-61
2022/08/09 00:41:48;;;;;;;245.05;44.53;;;;;;;;;;4215681;28;20028;-61
2022/08/09 00:43:52;;;;;;;229.40;43.45;;;;;;;;;;4215773;28;20040;-61
2022/08/09 00:45:53;;;;;;;224.10;45.72;;;;;;;;;;4215410;28;20085;-61
2022/08/09 00:47:54;;;;;;;256.48;46.55;;;;;;;;;;4215248;28;20119;-60
2022/08/09 00:49:58;;;;;;;297.38;49.40;;;;;;;;;;4215134;28;20032;-61
2022/08/09 00:51:58;;;;;;;289.67;49.97;;;;;;;;;;4215485;28;20093;-61
2022/08/09 00:53:59;;;;;;;300.73;51.70;;;;;;;;;;4215551;28;20394;-61
2022/08/09 00:56:03;;;;;;;318.33;51.72;;;;;;;;;;4215536;28;20040;-61
2022/08/09 00:58:04;;;;;;;302.85;49.75;;;;;;;;;;4214754;28;20028;-61
2022/08/09 01:00:10;;;;;;;297.42;53.00;;;;;;;;;;4215006;28;20127;-60
2022/08/09 01:02:11;;;;;;;300.27;51.92;;;;;;;;;;4213957;28;20028;-61
2022/08/09 01:04:17;;;;;;;306.60;50.38;;;;;;;;;;4215484;28;20410;-61
2022/08/09 01:06:22;;;;;;;318.25;55.30;;;;;;;;;;4214858;28;20032;-61
2022/08/09 01:08:28;;;;;;;333.17;54.28;;;;;;;;;;4215340;28;20445;-61
2022/08/09 01:10:47;;;;;;;292.55;52.53;;;;;;;;;;4213397;28;20441;-61
2022/08/09 01:12:52;;;;;;;400.05;68.28;;;;;;;;;;4215210;28;20036;-61
2022/08/09 01:15:22;;;;;;;455.58;150.02;;;;;;;;;;4215216;28;20089;-61
2022/08/09 01:17:26;;;;;;;590.72;228.68;;;;;;;;;;4202373;28;20426;-61
2022/08/09 01:19:45;;;;;;;812.35;345.42;;;;;;;;;;4214653;28;20032;-62
2022/08/09 01:21:50;;;;;;;749.95;307.77;;;;;;;;;;4214999;28;20525;-61
2022/08/09 01:23:54;;;;;;;734.33;300.90;;;;;;;;;;4215255;28;20024;-61
2022/08/09 01:26:13;;;;;;;685.88;275.63;;;;;;;;;;4210218;28;20423;-61
2022/08/09 01:28:14;;;;;;;648.28;255.27;;;;;;;;;;4195484;28;20476;-61
2022/08/09 01:30:18;;;;;;;622.83;238.45;;;;;;;;;;4197407;28;20045;-61
2022/08/09 01:32:20;;;;;;;576.65;231.00;;;;;;;;;;4197604;28;20541;-61
2022/08/09 01:34:23;;;;;;;586.60;222.88;;;;;;;;;;4197724;28;20082;-61
2022/08/09 01:36:25;;;;;;;574.53;215.10;;;;;;;;;;4198079;28;20024;-61
2022/08/09 01:38:27;;;;;;;565.88;213.40;;;;;;;;;;4198061;28;20021;-61
2022/08/09 01:40:28;;;;;;;535.17;205.63;;;;;;;;;;4197191;28;20048;-61
2022/08/09 01:42:31;;;;;;;539.35;197.95;;;;;;;;;;4197298;28;20032;-61
2022/08/09 01:44:33;;;;;;;490.60;191.88;;;;;;;;;;4197584;28;20040;-61
2022/08/09 01:46:38;;;;;;;512.03;188.95;;;;;;;;;;4197555;28;20460;-61
2022/08/09 01:48:40;;;;;;;483.67;180.80;;;;;;;;;;4197480;28;20472;-61
2022/08/09 01:50:43;;;;;;;503.10;183.07;;;;;;;;;;4197108;28;20029;-61
2022/08/09 01:52:45;;;;;;;467.52;173.23;;;;;;;;;;4197254;28;20041;-61
2022/08/09 01:54:48;;;;;;;459.92;166.27;;;;;;;;;;4197020;28;20066;-63
2022/08/09 01:56:49;;;;;;;484.75;165.45;;;;;;;;;;4197663;28;20096;-61
2022/08/09 01:58:51;;;;;;;436.20;154.38;;;;;;;;;;4197373;28;20423;-61
2022/08/09 02:00:53;;;;;;;443.50;160.15;;;;;;;;;;4197637;28;20028;-62
2022/08/09 02:02:54;;;;;;;415.63;149.45;;;;;;;;;;4197448;28;20028;-62
2022/08/09 02:04:56;;;;;;;423.23;145.88;;;;;;;;;;4197251;28;20415;-62
2022/08/09 02:07:14;;;;;;;416.63;146.80;;;;;;;;;;4197387;28;20032;-62
2022/08/09 02:09:15;;;;;;;396.48;139.77;;;;;;;;;;4211933;28;20036;-62
2022/08/09 02:11:17;;;;;;;396.17;134.77;;;;;;;;;;4212967;28;20032;-62
2022/08/09 02:13:19;;;;;;;394.05;134.20;;;;;;;;;;4213701;28;20109;-62
2022/08/09 02:15:22;;;;;;;368.42;129.32;;;;;;;;;;4214099;28;20085;-62
2022/08/09 02:17:27;;;;;;;388.13;132.93;;;;;;;;;;4214260;28;20032;-62
2022/08/09 02:19:28;;;;;;;357.88;126.43;;;;;;;;;;4201520;28;20040;-61
2022/08/09 02:21:33;;;;;;;360.48;123.60;;;;;;;;;;4196704;28;20035;-62
2022/08/09 02:23:39;;;;;;;363.20;124.38;;;;;;;;;;4197377;28;20036;-62
2022/08/09 02:25:41;;;;;;;351.85;122.43;;;;;;;;;;4196936;28;20090;-62
2022/08/09 02:27:48;;;;;;;327.60;114.05;;;;;;;;;;4208822;28;20032;-61
2022/08/09 02:29:50;;;;;;;331.05;113.72;;;;;;;;;;4213096;28;20036;-61
2022/08/09 02:31:53;;;;;;;304.00;109.95;;;;;;;;;;4213798;28;20048;-62
2022/08/09 02:33:55;;;;;;;312.50;106.70;;;;;;;;;;4213564;28;20032;-62
2022/08/09 02:35:58;;;;;;;295.95;105.85;;;;;;;;;;4213012;28;20081;-62
2022/08/09 02:38:01;;;;;;;284.48;103.22;;;;;;;;;;4213523;28;20097;-64
2022/08/09 02:40:06;;;;;;;275.85;100.43;;;;;;;;;;4213495;28;20449;-62
2022/08/09 02:42:09;;;;;;;295.88;100.60;;;;;;;;;;4213874;28;20024;-60
2022/08/09 02:44:19;;;;;;;275.02;97.68;;;;;;;;;;4213911;28;20491;-62
2022/08/09 02:46:21;;;;;;;271.17;97.97;;;;;;;;;;4213851;28;20628;-61
2022/08/09 02:48:25;;;;;;;266.75;92.32;;;;;;;;;;4214237;28;20024;-62
2022/08/09 02:50:36;;;;;;;244.18;89.65;;;;;;;;;;4213468;28;20032;-63
2022/08/09 02:52:39;;;;;;;248.65;92.93;;;;;;;;;;4213877;28;20452;-61
2022/08/09 02:54:44;;;;;;;254.82;93.07;;;;;;;;;;4213884;28;20085;-61
2022/08/09 02:56:45;;;;;;;;;;;;;;;;;;4214282;28;20089;-62
2022/08/09 02:58:47;;;;;;;253.35;88.13;;;;;;;;;;4214200;28;19905;-62
2022/08/09 03:00:49;;;;;;;240.57;87.30;;;;;;;;;;4213414;28;20048;-62
2022/08/09 03:02:52;;;;;;;260.83;89.05;;;;;;;;;;4213641;28;20062;-61
2022/08/09 03:04:54;;;;;;;218.45;86.65;;;;;;;;;;4213516;28;20081;-62
2022/08/09 03:07:01;;;;;;;219.18;83.13;;;;;;;;;;4213539;28;20085;-62
2022/08/09 03:09:06;;;;;;;237.38;85.68;;;;;;;;;;4213942;28;20036;-61
2022/08/09 03:11:10;;;;;;;223.23;82.65;;;;;;;;;;4213354;28;20032;-62
2022/08/09 03:13:13;;;;;;;223.40;81.20;;;;;;;;;;4213626;28;20036;-62
2022/08/09 03:15:14;;;;;;;204.73;78.53;;;;;;;;;;4213657;28;20081;-62
2022/08/09 03:17:15;;;;;;;213.50;82.32;;;;;;;;;;4213782;28;20036;-61
2022/08/09 03:19:18;;;;;;;226.40;82.05;;;;;;;;;;4213851;28;20032;-62
2022/08/09 03:21:21;;;;;;;193.23;78.70;;;;;;;;;;4213572;28;20024;-62
2022/08/09 03:23:22;;;;;;;198.75;76.45;;;;;;;;;;4213604;28;20040;-62
2022/08/09 03:25:23;;;;;;;209.15;76.07;;;;;;;;;;4210413;28;20040;-62
2022/08/09 03:27:24;;;;;;;213.40;75.97;;;;;;;;;;4208014;28;20028;-61
2022/08/09 03:29:25;;;;;;;187.63;73.47;;;;;;;;;;4216136;28;20093;-62
2022/08/09 03:31:31;;;;;;;203.00;76.60;;;;;;;;;;4216675;28;20467;-61
2022/08/09 03:33:36;;;;;;;198.88;73.82;;;;;;;;;;4216722;28;20410;-62
2022/08/09 03:35:37;;;;;;;197.27;72.63;;;;;;;;;;4216390;28;20352;-62
2022/08/09 03:37:38;;;;;;;191.55;73.25;;;;;;;;;;4216597;28;20081;-62
2022/08/09 03:39:39;;;;;;;188.70;73.15;;;;;;;;;;4216062;28;20040;-62
2022/08/09 03:41:40;;;;;;;183.70;71.72;;;;;;;;;;4216753;28;20036;-62
2022/08/09 03:43:44;;;;;;;176.68;69.00;;;;;;;;;;4215780;28;20040;-62
2022/08/09 03:45:45;;;;;;;182.15;68.28;;;;;;;;;;4215996;28;20028;-62
2022/08/09 03:47:46;;;;;;;175.98;66.72;;;;;;;;;;4216909;28;20107;-62
2022/08/09 03:49:48;;;;;;;171.88;66.43;;;;;;;;;;4215835;28;20128;-62
2022/08/09 03:51:51;;;;;;;169.68;65.05;;;;;;;;;;4216309;28;20098;-62
2022/08/09 03:53:52;;;;;;;174.45;68.90;;;;;;;;;;4216114;28;20032;-62
2022/08/09 03:55:53;;;;;;;164.30;63.83;;;;;;;;;;4216718;28;20069;-62
2022/08/09 03:57:55;;;;;;;162.73;62.72;;;;;;;;;;4216268;28;20028;-62
2022/08/09 03:59:56;;;;;;;174.57;65.22;;;;;;;;;;4215619;28;20901;-62
2022/08/09 04:02:00;;;;;;;168.35;64.25;;;;;;;;;;4216166;28;20028;-62
2022/08/09 04:04:02;;;;;;;152.68;60.22;;;;;;;;;;4216553;28;20031;-62
2022/08/09 04:06:05;;;;;;;153.95;62.03;;;;;;;;;;4216544;28;20016;-62
2022/08/09 04:08:06;;;;;;;164.17;63.37;;;;;;;;;;4216428;28;20035;-62
2022/08/09 04:10:07;;;;;;;158.40;63.15;;;;;;;;;;4215527;28;20593;-62
2022/08/09 04:12:14;;;;;;;146.07;59.35;;;;;;;;;;4215954;28;20425;-62
2022/08/09 04:14:16;;;;;;;146.52;58.15;;;;;;;;;;4215543;28;20032;-61
2022/08/09 04:16:17;;;;;;;158.50;60.10;;;;;;;;;;4215732;28;20073;-62
2022/08/09 04:18:21;;;;;;;147.68;57.40;;;;;;;;;;4215769;28;20077;-62
2022/08/09 04:20:22;;;;;;;156.27;61.65;;;;;;;;;;4215449;28;20044;-61
2022/08/09 04:22:23;;;;;;;148.85;57.60;;;;;;;;;;4216222;28;20023;-62
2022/08/09 04:24:24;;;;;;;153.48;59.63;;;;;;;;;;4216037;28;20066;-61
2022/08/09 04:26:25;;;;;;;144.50;58.10;;;;;;;;;;4215728;28;20028;-62
2022/08/09 04:28:26;;;;;;;160.43;59.90;;;;;;;;;;4215356;28;20036;-62
2022/08/09 04:30:27;;;;;;;133.77;56.40;;;;;;;;;;4214912;28;20134;-62
2022/08/09 04:32:28;;;;;;;130.07;53.85;;;;;;;;;;4215402;28;20052;-62
2022/08/09 04:34:32;;;;;;;142.80;56.00;;;;;;;;;;4215491;28;20078;-62
2022/08/09 04:36:33;;;;;;;126.88;53.95;;;;;;;;;;4215491;28;20429;-62
2022/08/09 04:38:34;;;;;;;138.15;58.20;;;;;;;;;;4215548;28;20072;-62
2022/08/09 04:40:49;;;;;;;144.60;54.17;;;;;;;;;;4214194;28;20121;-62
2022/08/09 04:42:50;;;;;;;140.65;53.83;;;;;;;;;;4215215;28;20028;-62
2022/08/09 04:44:51;;;;;;;135.05;53.22;;;;;;;;;;4215780;28;20119;-62
2022/08/09 04:46:52;;;;;;;124.28;53.42;;;;;;;;;;4215063;28;20111;-62
2022/08/09 04:48:53;;;;;;;135.52;52.08;;;;;;;;;;4215280;28;20085;-62
2022/08/09 04:50:54;;;;;;;133.05;53.33;;;;;;;;;;4215245;28;20043;-62
2022/08/09 04:52:55;;;;;;;131.13;53.90;;;;;;;;;;4215342;28;20038;-61
2022/08/09 04:54:56;;;;;;;118.30;50.72;;;;;;;;;;4215477;28;20038;-61
2022/08/09 04:56:58;;;;;;;124.25;53.28;;;;;;;;;;4215624;28;20077;-62
2022/08/09 04:58:58;;;;;;;124.13;51.00;;;;;;;;;;4214798;28;20048;-62
2022/08/09 05:01:00;;;;;;;116.72;48.60;;;;;;;;;;4214687;28;20044;-62
2022/08/09 05:03:02;;;;;;;122.18;48.75;;;;;;;;;;4215161;28;20036;-62
2022/08/09 05:05:03;;;;;;;115.93;49.30;;;;;;;;;;4215216;28;20082;-63
2022/08/09 05:07:06;;;;;;;112.57;48.85;;;;;;;;;;4215061;28;20106;-62
2022/08/09 05:09:07;;;;;;;121.47;49.30;;;;;;;;;;4215083;28;20036;-62
2022/08/09 05:11:08;;;;;;;120.88;48.75;;;;;;;;;;4214846;28;20271;-62
2022/08/09 05:13:09;;;;;;;119.22;47.42;;;;;;;;;;4214979;28;20036;-61
2022/08/09 05:15:10;;;;;;;111.32;47.40;;;;;;;;;;4215249;28;20030;-62
2022/08/09 05:17:11;;;;;;;108.32;47.25;;;;;;;;;;4214925;28;20039;-62
2022/08/09 05:19:13;;;;;;;112.63;46.90;;;;;;;;;;4214717;28;20032;-62
2022/08/09 05:21:15;;;;;;;101.13;45.45;;;;;;;;;;4214343;28;20048;-61
2022/08/09 05:23:16;;;;;;;118.72;45.10;;;;;;;;;;4214880;28;20040;-62
2022/08/09 05:25:20;;;;;;;107.20;46.33;;;;;;;;;;4214652;28;20031;-62
2022/08/09 05:27:21;;;;;;;109.53;48.15;;;;;;;;;;4214697;28;20081;-62
2022/08/09 05:29:22;;;;;;;100.57;45.65;;;;;;;;;;4214146;28;20463;-62
2022/08/09 05:31:23;;;;;;;98.57;44.83;;;;;;;;;;4214633;28;20047;-62
2022/08/09 05:33:24;;;;;;;109.70;48.17;;;;;;;;;;4214595;28;20028;-62
2022/08/09 05:35:25;;;;;;;110.32;44.40;;;;;;;;;;4215179;28;20099;-62
2022/08/09 05:37:26;;;;;;;100.80;44.40;;;;;;;;;;4214639;28;20442;-62
2022/08/09 05:39:27;;;;;;;99.95;44.28;;;;;;;;;;4214636;28;20119;-62
2022/08/09 05:41:27;;;;;;;102.70;45.40;;;;;;;;;;4214474;28;20040;-61
2022/08/09 05:43:34;;;;;;;115.63;43.92;;;;;;;;;;4214501;28;20039;-62
2022/08/09 05:45:34;;;;;;;104.20;43.75;;;;;;;;;;4214255;28;20101;-62
2022/08/09 05:47:35;;;;;;;96.80;42.90;;;;;;;;;;4214741;28;20028;-62
2022/08/09 05:49:37;;;;;;;102.55;41.83;;;;;;;;;;4214492;28;20020;-62
2022/08/09 05:51:40;;;;;;;98.30;42.45;;;;;;;;;;4213869;28;20032;-62
2022/08/09 05:53:41;;;;;;;95.67;42.70;;;;;;;;;;4214730;28;20437;-62
2022/08/09 05:55:43;;;;;;;88.95;41.50;;;;;;;;;;4214400;28;20094;-62
2022/08/09 05:57:44;;;;;;;90.07;40.53;;;;;;;;;;4214946;28;20152;-63
2022/08/09 05:59:45;;;;;;;92.38;42.78;;;;;;;;;;4214366;28;20023;-62
2022/08/09 06:01:46;;;;;;;89.40;40.80;;;;;;;;;;4212992;28;20032;-62
2022/08/09 06:03:49;;;;;;;94.07;41.08;;;;;;;;;;4214782;28;20023;-62
2022/08/09 06:05:50;;;;;;;90.28;39.38;;;;;;;;;;4214241;28;20032;-62
2022/08/09 06:07:54;;;;;;;75.75;37.42;;;;;;;;;;4214548;28;20028;-62
2022/08/09 06:09:55;;;;;;;82.47;41.28;;;;;;;;;;4213794;28;20031;-62
2022/08/09 06:11:55;;;;;;;86.75;40.17;;;;;;;;;;4214239;28;20028;-62
2022/08/09 06:13:56;;;;;;;90.28;38.35;;;;;;;;;;4214066;28;20043;-62
2022/08/09 06:15:57;;;;;;;80.13;39.05;;;;;;;;;;4214496;28;20353;-62
2022/08/09 06:17:59;;;;;;;86.20;40.05;;;;;;;;;;4214164;28;20036;-62
2022/08/09 06:19:59;;;;;;;80.63;37.40;;;;;;;;;;4213426;28;20078;-62
2022/08/09 06:22:00;;;;;;;84.95;37.90;;;;;;;;;;4214406;28;20119;-62
2022/08/09 06:24:04;;;;;;;74.13;38.38;;;;;;;;;;4214029;28;20467;-62
2022/08/09 06:26:06;;;;;;;77.27;36.90;;;;;;;;;;4214204;28;20031;-62
2022/08/09 06:28:07;;;;;;;77.50;36.58;;;;;;;;;;4214072;28;20028;-62
2022/08/09 06:30:08;;;;;;;73.60;36.67;;;;;;;;;;4213593;28;20360;-62
2022/08/09 06:32:10;;;;;;;79.35;37.42;;;;;;;;;;4214116;28;20051;-62
2022/08/09 06:34:13;;;;;;;69.03;34.72;;;;;;;;;;4214246;28;20090;-62
2022/08/09 06:36:14;;;;;;;80.13;35.55;;;;;;;;;;4213877;28;20093;-62
2022/08/09 06:38:15;;;;;;;72.60;35.15;;;;;;;;;;4208446;28;20430;-62
2022/08/09 06:40:16;;;;;;;75.43;35.22;;;;;;;;;;4213853;28;20042;-61
2022/08/09 06:42:17;;;;;;;75.18;35.50;;;;;;;;;;4213804;28;20114;-62
2022/08/09 06:44:18;;;;;;;70.97;35.13;;;;;;;;;;4213931;28;20036;-62
2022/08/09 06:46:19;;;;;;;78.43;35.53;;;;;;;;;;4213370;28;20468;-62
2022/08/09 06:48:20;;;;;;;68.10;33.97;;;;;;;;;;4214220;28;20032;-62
2022/08/09 06:50:21;;;;;;;71.95;35.15;;;;;;;;;;4213548;28;20482;-62
2022/08/09 06:52:22;;;;;;;67.80;33.25;;;;;;;;;;4214091;28;20024;-62
2022/08/09 06:54:23;;;;;;;68.05;35.00;;;;;;;;;;4213839;28;20032;-62
2022/08/09 06:56:24;;;;;;;69.70;32.80;;;;;;;;;;4213891;28;20376;-62
2022/08/09 06:58:25;;;;;;;65.72;32.33;;;;;;;;;;4214129;28;20046;-62
2022/08/09 07:00:26;;;;;;;64.80;31.17;;;;;;;;;;4213496;28;20105;-62
2022/08/09 07:02:27;;;;;;;59.63;29.65;;;;;;;;;;4213866;28;20406;-62
2022/08/09 07:04:28;;;;;;;57.72;30.85;;;;;;;;;;4216721;28;20036;-62
2022/08/09 07:06:29;;;;;;;69.10;33.28;;;;;;;;;;4216811;28;20468;-62
2022/08/09 07:08:30;;;;;;;68.55;32.08;;;;;;;;;;4217447;28;20063;-62
2022/08/09 07:10:32;;;;;;;68.75;32.90;;;;;;;;;;4216693;28;20028;-62
2022/08/09 07:12:33;;;;;;;64.65;31.65;;;;;;;;;;4216933;28;20081;-62
2022/08/09 07:14:34;;;;;;;68.53;31.48;;;;;;;;;;4213834;28;20028;-62
2022/08/09 07:16:37;;;;;;;64.95;32.63;;;;;;;;;;4217085;28;20036;-62
2022/08/09 07:18:38;;;;;;;58.30;30.98;;;;;;;;;;4216768;28;20036;-62
2022/08/09 07:20:42;;;;;;;68.35;32.67;;;;;;;;;;4216600;28;20062;-62
2022/08/09 07:22:43;;;;;;;58.72;30.20;;;;;;;;;;4215534;28;20093;-62
2022/08/09 07:24:44;;;;;;;64.90;30.90;;;;;;;;;;4214855;28;20073;-62
2022/08/09 07:26:45;;;;;;;61.00;30.20;;;;;;;;;;4216739;28;20039;-62
2022/08/09 07:28:46;;;;;;;56.28;30.10;;;;;;;;;;4216988;28;20107;-62
2022/08/09 07:30:47;;;;;;;59.35;28.88;;;;;;;;;;4216126;28;20039;-62
2022/08/09 07:32:48;;;;;;;64.82;28.48;;;;;;;;;;4216523;28;20047;-62
2022/08/09 07:34:49;;;;;;;65.15;30.23;;;;;;;;;;4216577;28;20460;-62
2022/08/09 07:36:53;;;;;;;59.17;29.80;;;;;;;;;;4216865;28;20032;-62
2022/08/09 07:38:54;;;;;;;58.30;29.80;;;;;;;;;;4217031;28;20082;-62
2022/08/09 07:40:55;;;;;;;57.17;29.00;;;;;;;;;;4205262;28;20043;-62
2022/08/09 07:42:57;;;;;;;51.38;28.02;;;;;;;;;;4216271;28;20034;-62
2022/08/09 07:44:58;;;;;;;53.78;27.63;;;;;;;;;;4216463;28;20040;-62
2022/08/09 07:46:59;;;;;;;56.55;28.50;;;;;;;;;;4216494;28;20421;-62
2022/08/09 07:49:00;;;;;;;56.63;29.27;;;;;;;;;;4216236;28;20111;-62
2022/08/09 07:51:04;;;;;;;53.92;28.48;;;;;;;;;;4216037;28;20040;-62
2022/08/09 07:53:06;;;;;;;54.25;28.10;;;;;;;;;;4216212;28;20036;-62
2022/08/09 07:55:07;;;;;;;56.42;29.55;;;;;;;;;;4215929;28;20028;-62
2022/08/09 07:57:08;;;;;;;59.60;30.05;;;;;;;;;;4216680;28;20019;-62
2022/08/09 07:59:09;;;;;;;55.70;27.92;;;;;;;;;;4216561;28;20032;-62
2022/08/09 08:01:10;;;;;;;51.90;27.20;;;;;;;;;;4216122;28;20044;-62
2022/08/09 08:03:14;;;;;;;52.60;27.35;;;;;;;;;;4216099;28;20040;-62
2022/08/09 08:05:15;;;;;;;55.33;26.70;;;;;;;;;;4215802;28;20036;-62
2022/08/09 08:07:21;;;;;;;59.78;28.38;;;;;;;;;;4216352;28;20463;-62
2022/08/09 08:09:22;;;;;;;56.67;27.65;;;;;;;;;;4215723;28;20036;-62
2022/08/09 08:11:23;;;;;;;54.13;27.60;;;;;;;;;;4216528;28;20024;-62
2022/08/09 08:13:24;;;;;;;55.20;28.00;;;;;;;;;;4216474;28;20100;-62
2022/08/09 08:15:25;;;;;;;49.13;26.08;;;;;;;;;;4214798;28;20035;-62
2022/08/09 08:17:25;;;;;;;49.80;27.10;;;;;;;;;;4216211;28;20032;-62
2022/08/09 08:19:26;;;;;;;53.88;27.33;;;;;;;;;;4215722;28;20086;-62
2022/08/09 08:21:30;;;;;;;47.70;26.17;;;;;;;;;;4216087;28;20123;-63
2022/08/09 08:23:31;;;;;;;46.20;26.63;;;;;;;;;;4215767;28;20028;-63
2022/08/09 08:25:32;;;;;;;47.30;26.88;;;;;;;;;;4215850;28;20440;-62
2022/08/09 08:27:36;;;;;;;46.20;25.65;;;;;;;;;;4215709;28;20036;-62
2022/08/09 08:29:37;;;;;;;50.30;25.52;;;;;;;;;;4215788;28;20031;-62
2022/08/09 08:31:41;;;;;;;49.55;24.98;;;;;;;;;;4215760;28;20050;-62
2022/08/09 08:33:42;;;;;;;49.85;26.15;;;;;;;;;;4215157;28;20537;-62
2022/08/09 08:35:43;;;;;;;46.22;25.90;;;;;;;;;;4215635;28;20463;-62
2022/08/09 08:37:44;;;;;;;49.40;25.42;;;;;;;;;;4215516;28;20123;-62
2022/08/09 08:39:45;;;;;;;47.83;25.77;;;;;;;;;;4215167;28;20426;-62
2022/08/09 08:41:46;;;;;;;48.22;24.75;;;;;;;;;;4215437;28;20099;-62
2022/08/09 08:43:48;;;;;;;48.30;24.17;;;;;;;;;;4215431;28;20529;-62
2022/08/09 08:45:50;;;;;;;47.03;24.67;;;;;;;;;;4215505;28;20036;-62
2022/08/09 08:47:51;;;;;;;48.28;24.15;;;;;;;;;;4216012;28;20016;-61
2022/08/09 08:49:52;;;;;;;51.03;24.15;;;;;;;;;;4215382;28;20092;-62
2022/08/09 08:51:53;;;;;;;45.20;23.00;;;;;;;;;;4215375;28;20089;-62
2022/08/09 08:53:54;;;;;;;41.25;22.52;;;;;;;;;;4215170;28;20549;-62
2022/08/09 08:55:55;;;;;;;40.55;22.45;;;;;;;;;;4215701;28;20012;-62
2022/08/09 08:57:56;;;;;;;44.25;22.50;;;;;;;;;;4215131;28;20035;-62
2022/08/09 08:59:57;;;;;;;43.78;23.20;;;;;;;;;;4214807;28;20034;-62
2022/08/09 09:02:07;;;;;;;47.28;24.08;;;;;;;;;;4215004;28;20529;-62
2022/08/09 09:04:09;;;;;;;41.22;22.83;;;;;;;;;;4215164;28;20039;-62
2022/08/09 09:06:14;;;;;;;49.40;24.75;;;;;;;;;;4215126;28;20032;-62
2022/08/09 09:08:23;;;;;;;46.92;24.35;;;;;;;;;;4215040;28;20102;-62
2022/08/09 09:10:25;;;;;;;41.10;23.92;;;;;;;;;;4214504;28;20024;-62
2022/08/09 09:12:28;;;;;;;43.25;23.30;;;;;;;;;;4215075;28;20459;-62
2022/08/09 09:14:32;;;;;;;39.13;23.35;;;;;;;;;;4215119;28;20023;-62
2022/08/09 09:16:33;;;;;;;40.42;21.48;;;;;;;;;;4214985;28;20039;-63
2022/08/09 09:18:37;;;;;;;41.20;22.85;;;;;;;;;;4215127;28;20111;-62
2022/08/09 09:20:38;;;;;;;41.75;22.10;;;;;;;;;;4214130;28;20036;-62
2022/08/09 09:22:48;;;;;;;41.75;23.20;;;;;;;;;;4214781;28;20447;-62
2022/08/09 09:24:51;;;;;;;40.47;21.77;;;;;;;;;;4214869;28;20081;-62
2022/08/09 09:26:58;;;;;;;40.22;22.27;;;;;;;;;;4214358;28;20120;-62
2022/08/09 09:29:00;;;;;;;38.40;21.25;;;;;;;;;;4214532;28;20043;-61
2022/08/09 09:31:04;;;;;;;44.28;23.38;;;;;;;;;;4214718;28;20044;-62
2022/08/09 09:33:09;;;;;;;47.50;23.43;;;;;;;;;;4214742;28;20479;-62
2022/08/09 09:35:11;;;;;;;41.53;23.15;;;;;;;;;;4214652;28;20101;-62
2022/08/09 09:37:26;;;;;;;40.67;21.88;;;;;;;;;;4214518;28;20035;-62
2022/08/09 09:39:30;;;;;;;42.53;20.67;;;;;;;;;;4214307;28;20036;-62
2022/08/09 09:41:33;;;;;;;37.03;21.83;;;;;;;;;;4214459;28;20036;-62
2022/08/09 09:43:34;;;;;;;39.80;22.27;;;;;;;;;;4214523;28;20085;-61
2022/08/09 09:45:51;;;;;;;37.47;21.58;;;;;;;;;;4214555;28;20040;-61
2022/08/09 09:47:53;;;;;;;41.42;21.90;;;;;;;;;;4214356;28;20035;-63
2022/08/09 09:50:01;;;;;;;39.40;22.40;;;;;;;;;;4214021;28;20035;-62
2022/08/09 09:52:03;;;;;;;39.70;20.92;;;;;;;;;;4214574;28;20028;-62
2022/08/09 09:54:07;;;;;;;39.00;22.38;;;;;;;;;;4214327;28;20028;-62
2022/08/09 09:56:08;;;;;;;38.33;20.15;;;;;;;;;;4214453;28;20028;-62
2022/08/09 09:58:11;;;;;;;37.60;19.80;;;;;;;;;;4214117;28;20119;-62
2022/08/09 10:00:23;;;;;;;39.67;20.88;;;;;;;;;;4214071;28;20036;-62
2022/08/09 10:02:25;;;;;;;35.90;21.42;;;;;;;;;;4214273;28;20040;-62
2022/08/09 10:04:26;;;;;;;36.70;20.67;;;;;;;;;;4214177;28;20028;-62
2022/08/09 10:06:28;;;;;;;37.20;21.23;;;;;;;;;;4214369;28;20490;-62
2022/08/09 10:08:29;;;;;;;38.33;20.65;;;;;;;;;;4213922;28;20028;-62
2022/08/09 10:10:30;;;;;;;40.22;21.58;;;;;;;;;;4213906;28;20039;-62
2022/08/09 10:12:35;;;;;;;34.55;19.88;;;;;;;;;;4213160;28;20110;-62
2022/08/09 10:14:36;;;;;;;38.00;19.63;;;;;;;;;;4214257;28;20028;-62
2022/08/09 10:16:37;;;;;;;36.47;20.73;;;;;;;;;;4214450;28;20028;-62
2022/08/09 10:18:38;;;;;;;36.80;19.40;;;;;;;;;;4214468;28;20027;-62
2022/08/09 10:20:39;;;;;;;35.63;20.48;;;;;;;;;;4213661;28;20032;-62
2022/08/09 10:22:40;;;;;;;31.48;20.05;;;;;;;;;;4214359;28;20074;-62
2022/08/09 10:24:41;;;;;;;35.83;20.50;;;;;;;;;;4214223;28;20020;-62
2022/08/09 10:26:42;;;;;;;38.22;21.00;;;;;;;;;;4213958;28;20549;-63
2022/08/09 10:28:44;;;;;;;39.67;21.95;;;;;;;;;;4214029;28;20430;-63
2022/08/09 10:30:45;;;;;;;36.78;20.63;;;;;;;;;;4212975;28;20093;-62
2022/08/09 10:32:47;;;;;;;32.95;18.08;;;;;;;;;;4213365;28;20040;-62
2022/08/09 10:34:48;;;;;;;34.13;20.48;;;;;;;;;;4214335;28;20499;-62
2022/08/09 10:36:53;;;;;;;32.15;19.77;;;;;;;;;;4214002;28;20078;-62
2022/08/09 10:38:54;;;;;;;32.15;19.33;;;;;;;;;;4215482;28;20410;-62
2022/08/09 10:40:55;;;;;;;36.00;19.58;;;;;;;;;;4216212;28;20027;-62
2022/08/09 10:42:56;;;;;;;34.45;19.63;;;;;;;;;;4215606;28;20032;-62
2022/08/09 10:45:02;;;;;;;27.80;17.42;;;;;;;;;;4216283;28;20086;-61
2022/08/09 10:47:21;;;;;;;34.83;19.35;;;;;;;;;;4217181;28;20035;-62
2022/08/09 10:49:25;;;;;;;32.05;18.63;;;;;;;;;;4216955;28;20461;-62
2022/08/09 10:51:29;;;;;;;32.08;18.45;;;;;;;;;;4217310;28;20081;-62
2022/08/09 10:53:32;;;;;;;34.22;19.23;;;;;;;;;;4216894;28;20040;-62
2022/08/09 10:55:36;;;;;;;34.05;18.73;;;;;;;;;;4217314;28;20439;-62
2022/08/09 10:57:40;;;;;;;33.38;18.58;;;;;;;;;;4216085;28;20081;-62
2022/08/09 10:59:41;;;;;;;36.40;19.08;;;;;;;;;;4216099;28;20024;-62
2022/08/09 11:01:42;;;;;;;32.72;18.40;;;;;;;;;;4216329;28;20043;-62
2022/08/09 11:04:03;;;;;;;28.30;16.50;;;;;;;;;;4216621;28;20059;-62
2022/08/09 11:06:21;;;;;;;31.17;18.35;;;;;;;;;;4213741;28;20036;-62
2022/08/09 11:08:41;;;;;;;33.15;18.08;;;;;;;;;;4200145;28;20086;-63
2022/08/09 11:10:48;;;;;;;31.15;17.50;;;;;;;;;;4199758;28;20055;-62
2022/08/09 11:13:24;;;;;;;31.08;17.45;;;;;;;;;;4200376;28;20033;-62
2022/08/09 11:15:25;;;;;;;;;;;;;;;;;;4149483;28;20103;-62
2022/08/09 11:17:25;;;;;;;35.83;19.25;;;;;;;;;;4176805;28;19908;-62
2022/08/09 11:19:45;;;;;;;30.60;17.50;;;;;;;;;;4200015;28;20471;-63
2022/08/09 11:22:00;;;;;;;28.83;18.45;;;;;;;;;;4199964;28;20097;-62
2022/08/09 11:24:01;;;;;;;30.98;18.42;;;;;;;;;;4199977;28;20468;-62
2022/08/09 11:26:02;;;;;;;27.48;16.38;;;;;;;;;;4199899;28;20088;-62
2022/08/09 11:28:41;;;;;;;31.15;17.52;;;;;;;;;;4199916;28;20119;-62
2022/08/09 11:30:42;;;;;;;31.08;18.25;;;;;;;;;;4148632;28;20624;-62
2022/08/09 11:32:52;;;;;;;30.52;17.10;;;;;;;;;;4147543;28;20054;-62
2022/08/09 11:34:53;;;;;;;27.35;16.33;;;;;;;;;;4148657;28;20445;-62
2022/08/09 11:37:02;;;;;;;29.40;18.23;;;;;;;;;;4183582;28;20029;-62
2022/08/09 11:39:03;;;;;;;29.23;16.17;;;;;;;;;;4183556;28;20036;-62
2022/08/09 11:41:27;;;;;;;28.50;16.90;;;;;;;;;;4183057;28;20037;-62
2022/08/09 11:43:28;;;;;;;28.98;18.38;;;;;;;;;;4183463;28;20037;-62
2022/08/09 11:45:29;;;;;;;27.52;17.13;;;;;;;;;;4183408;28;20033;-62
2022/08/09 11:47:56;;;;;;;32.10;18.08;;;;;;;;;;4183280;28;20025;-62
2022/08/09 11:50:03;;;;;;;30.23;17.40;;;;;;;;;;4178958;28;20033;-62
2022/08/09 11:52:04;;;;;;;32.03;17.35;;;;;;;;;;4183478;28;20059;-62